Skip Navigation Links
NOAA logo - Click to go to the NOAA homepage
NOAA's National Weather Service
Alaska Aviation Weather Unit
  NWS logo - Click to go to the NWS homepage
Left Navbar Graphic     01 AKDT = 09 GMT

   
NOAA is celebrating 200 years of science, service, and stewardship. Visit the NOAA 200th celebration Web site to learn more.
USA.gov is the U.S. Government's official Web portal to all Federal, state and local government Web resources and services.
Facebook
NWS on Facebook

Important Change Regarding the AAWU Web Presence

 

Over the last several months, the AAWU has been working to navigate its webpages to a nationally supported server. Security, as well as other needs, have necessitated the change.  We have been given an extension for the site changeover while we diligently work at addressing feedback received. As of July 14, 2017, aawu.arh.noaa.gov will be discontinued. The new AAWU web address is weather.gov/aawu. It is now live and will run in-parallel with the old site until it is discontinued on July 14, 2017. Please continue to send any feedback or questions regarding the new webpages to nws.ar.aawu.webauthors@noaa.gov.  Thank you for your patience during this time of transition.
AAWU Home :: Display TAF Add Bookmark
TAF PAGS 190524Z 1906/2006  13007KT P6SM VCSH SCT030 BKN035 OVC070
     FM190900 14006KT P6SM -SHRA BKN015 OVC025
     FM192100 12010KT 6SM -SHRA BR FEW005 OVC015
      AMD LTD TO CLD VIS AND WIND=

7451
FTAK31 PAJN 190524
TAFAJN
TAF
METAR PAGS 190356Z AUTO 11005KT 10SM FEW036 SCT050 SCT075 12/11
 A2997 RMK AO2 RAE14 SLP151 P0000 T01220106=

METAR PAGS 190456Z AUTO 14006KT 9SM BKN034 BKN043 BKN070 12/11 A2998 RMK
     AO2 SLP154 T01220106=

METAR PAGS 190556Z AUTO 11007KT 10SM -RA SCT032 SCT049 OVC065 12/11
 A2999 RMK AO2 RAB43 SLP156 P0000 60000 T01220106 10156 20117
 53005=

METAR PAGS 190656Z AUTO 11006KT 10SM SCT032 OVC065 12/11 A3000 RMK
 AO2 RAE07B38E53 SLP158 P0000 T01220106=

METAR PAGS 190756Z AUTO 12008KT 10SM BKN035 BKN044 OVC060 12/11 A3000
     RMK AO2 SLP159 T01220106=

METAR PAGS 190856Z AUTO 12008KT 10SM BKN037 OVC045 12/11 A3000 RMK AO2
     SLP161 60000 T01220106 401610094 51005=


NOAA's National Weather Service
Alaska Aviation Weather Unit
6930 Sand Lake Road
Anchorage, AK 99502-1845
Disclaimer
Credits
Glossary
Privacy Policy
About Us
Career Opportunities
Contact AAWU Internet Services Site last modified: April, 17th 2012